Time;durP1;ratioP1;P1;durP2;ratioP2;P2;SDS_P1;SDS_P2;PMS_P1;PMS_P2;Temp;Humidity;BMP_temperature;BMP_pressure;BME280_temperature;BME280_humidity;BME280_pressure;Samples;Min_cycle;Max_cycle;Signal;HPM_P1;HPM_P2
2023/01/31 00:00:34;;;;;;;13.07;8.57;;;3.20;99.90;;;;;;4562017;30;20389;-83
2023/01/31 00:25:30;;;;;;;11.70;7.80;;;3.20;99.90;;;;;;4667631;29;20647;-80
2023/01/31 00:51:26;;;;;;;12.23;7.90;;;3.30;99.90;;;;;;4608002;30;20852;-83
2023/01/31 00:55:46;;;;;;;13.07;8.17;;;3.30;99.90;;;;;;4561868;30;20230;-83
2023/01/31 01:31:52;;;;;;;11.40;7.83;;;3.30;99.90;;;;;;4793500;29;20236;-84
2023/01/31 02:02:14;;;;;;;12.37;7.73;;;3.00;99.90;;;;;;4807748;29;20212;-84
2023/01/31 02:22:32;;;;;;;16.97;7.80;;;3.10;99.90;;;;;;4642751;30;21422;-86
2023/01/31 02:53:01;;;;;;;10.37;5.83;;;3.40;99.90;;;;;;4764709;29;20255;-84
2023/01/31 03:58:49;;;;;;;14.03;4.43;;;3.60;99.90;;;;;;4846791;28;20196;-84
2023/01/31 04:03:10;;;;;;;8.70;4.27;;;3.60;99.90;;;;;;4794789;29;20534;-82
2023/01/31 04:29:09;;;;;;;12.97;4.73;;;3.50;99.50;;;;;;4656388;30;20243;-83
2023/01/31 04:59:17;;;;;;;13.03;3.77;;;3.20;99.00;;;;;;4751611;29;20190;-85
2023/01/31 05:29:27;;;;;;;11.10;3.47;;;3.40;96.20;;;;;;4737532;29;20531;-81
2023/01/31 05:54:30;;;;;;;11.53;3.40;;;3.40;96.20;;;;;;4689333;30;20669;-85
2023/01/31 06:14:40;;;;;;;12.47;3.60;;;3.00;97.90;;;;;;4602482;30;20641;-84
2023/01/31 06:44:46;;;;;;;11.57;3.33;;;3.50;96.30;;;;;;4541094;30;20653;-81
2023/01/31 07:05:32;;;;;;;13.67;3.43;;;3.30;96.90;;;;;;4600113;30;20379;-79
2023/01/31 07:36:01;;;;;;;11.93;3.40;;;3.50;94.30;;;;;;4557855;30;20644;-80
2023/01/31 08:05:51;;;;;;;8.53;3.10;;;3.90;91.90;;;;;;4605140;29;20585;-82
2023/01/31 08:21:25;;;;;;;9.93;3.70;;;3.90;91.00;;;;;;4696157;29;20616;-81
2023/01/31 08:42:03;;;;;;;8.47;2.83;;;4.00;90.30;;;;;;4583202;30;20325;-80
2023/01/31 09:11:48;;;;;;;10.60;3.30;;;4.10;89.50;;;;;;4547518;30;20228;-78
2023/01/31 09:32:24;;;;;;;7.63;3.70;;;4.40;87.80;;;;;;4466656;30;20588;-79
2023/01/31 10:07:41;;;;;;;14.60;3.17;;;4.50;85.70;;;;;;4633181;29;20605;-82
2023/01/31 10:43:15;;;;;;;6.40;2.93;;;4.50;83.90;;;;;;4604151;29;20736;-82
2023/01/31 11:09:03;;;;;;;8.50;2.63;;;5.00;82.50;;;;;;4627518;29;20592;-81
2023/01/31 11:34:25;;;;;;;5.70;2.50;;;5.20;80.90;;;;;;4576601;30;20723;-83
2023/01/31 12:04:42;;;;;;;6.80;3.30;;;5.00;80.90;;;;;;4573396;30;20293;-81
2023/01/31 12:50:04;;;;;;;8.10;3.43;;;4.90;82.40;;;;;;4641286;29;20633;-81
2023/01/31 13:25:35;;;;;;;7.57;2.93;;;5.10;81.00;;;;;;4667124;29;20518;-80
2023/01/31 13:46:14;;;;;;;6.53;3.30;;;5.00;80.00;;;;;;4588462;30;20233;-80
2023/01/31 14:36:48;;;;;;;8.83;4.50;;;3.90;81.60;;;;;;4511373;30;20848;-81
2023/01/31 15:42:39;;;;;;;14.20;5.60;;;3.40;85.10;;;;;;4646691;29;21126;-82
2023/01/31 16:12:34;;;;;;;11.37;5.40;;;3.20;87.10;;;;;;4687128;29;21177;-85
2023/01/31 16:33:00;;;;;;;15.73;5.70;;;3.20;87.20;;;;;;4573472;30;21155;-83
2023/01/31 17:18:48;;;;;;;14.07;7.00;;;3.00;88.40;;;;;;4725091;29;20265;-84
2023/01/31 17:49:27;;;;;;;13.27;6.50;;;2.90;89.00;;;;;;4819162;29;20342;-85
2023/01/31 18:24:21;;;;;;;15.83;7.40;;;2.70;91.10;;;;;;4798825;29;20395;-84
2023/01/31 18:50:00;;;;;;;13.67;8.13;;;3.10;92.20;;;;;;4760136;29;20217;-86
2023/01/31 19:30:07;;;;;;;15.47;10.50;;;2.80;99.90;;;;;;4784818;29;20349;-83
2023/01/31 19:55:28;;;;;;;16.53;11.00;;;2.80;99.90;;;;;;4666809;29;20500;-85
2023/01/31 20:16:26;;;;;;;12.87;8.90;;;2.60;99.90;;;;;;4733641;29;20350;-83
2023/01/31 20:56:24;;;;;;;13.63;9.30;;;2.80;99.90;;;;;;4699522;29;20675;-86
2023/01/31 21:21:35;;;;;;;14.40;8.80;;;2.90;99.90;;;;;;4633024;30;21054;-85
2023/01/31 21:42:33;;;;;;;13.77;9.63;;;2.90;99.90;;;;;;4665253;30;20268;-83
2023/01/31 22:57:53;;;;;;;10.77;8.33;;;2.50;99.90;;;;;;4782400;29;20220;-83
2023/01/31 23:23:50;;;;;;;17.07;11.30;;;2.80;99.90;;;;;;4809025;29;20189;-82
2023/01/31 23:58:59;;;;;;;13.17;7.80;;;3.30;99.90;;;;;;4646665;29;20703;-82
